KVYS/VYS METAR and TAF weather

Enter ICAO airport designator
Station Type Date Time Source
KVYS METAR 2019/10/23 02:35 UTC NOAA

KVYS 230235Z AUTO 25012G20KT 10SM CLR 08/M01 A2985 RMK AO2 T00801015


Station Type Date Time Source
KVYS Decoded METAR 2019/10/23 02:35 UTC NOAA

Peru, Illinois Valley Regional-Walter A Duncan Field Airport, IL, United States (KVYS) 41-21-07N 089-09-11W
Oct 22, 2019 - 10:35 PM EDT / 2019.10.23 0235 UTC
Wind: from the WSW (250 degrees) at 14 MPH (12 KT) gusting to 23 MPH (20 KT):0
Visibility: 10 mile(s):0
Sky conditions: clear
Temperature: 46.4 F (8.0 C)
Dew Point: 29.3 F (-1.5 C)
Relative Humidity: 51%
Pressure (altimeter): 29.85 in. Hg (1010 hPa)
ob: KVYS 230235Z AUTO 25012G20KT 10SM CLR 08/M01 A2985 RMK AO2 T00801015
cycle: 2

Station Type Date Time Source
KVYS TAF UTC NOAA

Error!

Example: see airport list